Time;durP1;ratioP1;P1;durP2;ratioP2;P2;SDS_P1;SDS_P2;PMS_P1;PMS_P2;Temp;Humidity;BMP_temperature;BMP_pressure;BME280_temperature;BME280_humidity;BME280_pressure;Samples;Min_cycle;Max_cycle;Signal;HPM_P1;HPM_P2
2024/01/21 00:01:54;;;;;;;1.70;1.60;;;;;;;;;;5037784;28;20053;-78
2024/01/21 00:04:22;;;;;;;5.70;4.25;;;;;;;;;;5035104;28;20052;-79
2024/01/21 00:06:50;;;;;;;1.10;1.00;;;;;;;;;;5034798;28;20152;-79
2024/01/21 00:09:17;;;;;;;3.00;2.38;;;;;;;;;;5040312;28;20049;-79
2024/01/21 00:11:45;;;;;;;8.38;3.47;;;;;;;;;;5009330;28;20425;-79
2024/01/21 00:14:12;;;;;;;3.75;2.60;;;;;;;;;;5024954;28;20060;-78
2024/01/21 00:16:40;;;;;;;0.25;0.25;;;;;;;;;;5021043;28;20052;-79
2024/01/21 00:19:07;;;;;;;1.63;1.52;;;;;;;;;;5039935;28;20310;-79
2024/01/21 00:21:35;;;;;;;5.43;2.85;;;;;;;;;;5022342;28;20064;-79
2024/01/21 00:24:02;;;;;;;2.25;2.03;;;;;;;;;;5038516;28;20053;-79
2024/01/21 00:26:30;;;;;;;5.93;3.72;;;;;;;;;;5040438;28;20604;-79
2024/01/21 00:29:00;;;;;;;4.00;2.85;;;;;;;;;;5045695;28;20064;-79
2024/01/21 00:31:28;;;;;;;3.60;3.30;;;;;;;;;;5042471;28;20053;-79
2024/01/21 00:33:55;;;;;;;1.80;1.70;;;;;;;;;;5041467;28;20045;-79
2024/01/21 00:36:23;;;;;;;6.30;4.05;;;;;;;;;;5048401;28;20426;-79
2024/01/21 00:38:50;;;;;;;5.65;3.40;;;;;;;;;;5047436;28;20045;-79
2024/01/21 00:41:18;;;;;;;4.32;1.67;;;;;;;;;;5046036;28;20064;-79
2024/01/21 00:43:45;;;;;;;1.40;0.82;;;;;;;;;;5046934;28;20110;-78
2024/01/21 00:46:13;;;;;;;1.52;1.42;;;;;;;;;;5041361;28;20040;-80
2024/01/21 00:48:41;;;;;;;0.85;0.85;;;;;;;;;;5027093;28;20747;-80
2024/01/21 00:51:08;;;;;;;3.58;2.20;;;;;;;;;;5043660;28;20244;-79
2024/01/21 00:53:36;;;;;;;3.13;2.10;;;;;;;;;;5036696;28;20037;-79
2024/01/21 00:56:04;;;;;;;2.40;2.20;;;;;;;;;;5036801;28;20044;-79
2024/01/21 00:58:31;;;;;;;1.65;1.10;;;;;;;;;;5043535;28;20049;-79
2024/01/21 01:00:58;;;;;;;1.00;1.00;;;;;;;;;;5045747;28;20403;-79
2024/01/21 01:03:26;;;;;;;3.10;0.85;;;;;;;;;;5044316;28;20063;-79
2024/01/21 01:05:54;;;;;;;0.73;0.73;;;;;;;;;;5042630;28;20115;-79
2024/01/21 01:08:21;;;;;;;0.55;0.50;;;;;;;;;;5025182;28;20049;-79
2024/01/21 01:10:48;;;;;;;1.73;1.63;;;;;;;;;;5025341;28;20045;-79
2024/01/21 01:13:16;;;;;;;3.13;2.47;;;;;;;;;;5039241;28;20067;-79
2024/01/21 01:15:43;;;;;;;2.55;1.90;;;;;;;;;;5037868;28;20055;-79
2024/01/21 01:18:13;;;;;;;0.40;0.40;;;;;;;;;;5044623;28;20474;-79
2024/01/21 01:20:42;;;;;;;1.58;1.50;;;;;;;;;;5044175;28;20114;-79
2024/01/21 01:23:09;;;;;;;2.78;1.88;;;;;;;;;;5042544;28;20570;-79
2024/01/21 01:25:36;;;;;;;4.82;3.55;;;;;;;;;;5038695;28;20103;-79
2024/01/21 01:28:04;;;;;;;3.17;2.40;;;;;;;;;;5026741;28;20470;-79
2024/01/21 01:30:32;;;;;;;3.90;2.05;;;;;;;;;;5041573;28;20063;-79
2024/01/21 01:32:59;;;;;;;3.72;3.42;;;;;;;;;;5037783;28;20076;-79
2024/01/21 01:35:27;;;;;;;2.78;1.85;;;;;;;;;;5040526;28;20060;-79
2024/01/21 01:37:54;;;;;;;2.60;2.22;;;;;;;;;;5042527;28;20056;-79
2024/01/21 01:40:22;;;;;;;2.88;1.48;;;;;;;;;;5045540;28;20156;-79
2024/01/21 01:42:57;;;;;;;1.88;1.48;;;;;;;;;;5046072;28;20044;-79
2024/01/21 01:45:25;;;;;;;2.30;2.15;;;;;;;;;;5036559;28;20407;-79
2024/01/21 01:47:53;;;;;;;2.38;2.22;;;;;;;;;;5039505;28;20490;-79
2024/01/21 01:50:21;;;;;;;0.38;0.38;;;;;;;;;;5027988;28;20056;-79
2024/01/21 01:52:49;;;;;;;2.58;2.03;;;;;;;;;;5041956;28;20052;-79
2024/01/21 01:55:16;;;;;;;3.83;2.10;;;;;;;;;;5012040;28;20071;-79
2024/01/21 01:57:49;;;;;;;1.70;1.10;;;;;;;;;;5035525;28;20045;-79
2024/01/21 02:00:17;;;;;;;1.67;1.33;;;;;;;;;;5040190;28;20048;-79
2024/01/21 02:02:44;;;;;;;2.22;1.92;;;;;;;;;;5035175;28;20049;-79
2024/01/21 02:05:12;;;;;;;1.35;0.85;;;;;;;;;;5034125;28;20038;-79
2024/01/21 02:07:39;;;;;;;1.90;1.55;;;;;;;;;;5042895;28;20377;-79
2024/01/21 02:10:07;;;;;;;0.55;0.55;;;;;;;;;;5041356;28;20518;-79
2024/01/21 02:12:35;;;;;;;1.38;1.27;;;;;;;;;;5041314;28;20041;-79
2024/01/21 02:15:03;;;;;;;1.63;1.27;;;;;;;;;;5042408;28;20064;-79
2024/01/21 02:17:30;;;;;;;0.73;0.73;;;;;;;;;;5039242;28;20136;-79
2024/01/21 02:19:58;;;;;;;8.85;3.28;;;;;;;;;;5041131;28;20407;-79
2024/01/21 02:22:26;;;;;;;0.98;0.95;;;;;;;;;;5027420;28;20060;-79
2024/01/21 02:24:54;;;;;;;4.03;3.30;;;;;;;;;;5029660;28;20071;-79
2024/01/21 02:27:21;;;;;;;3.25;2.95;;;;;;;;;;5037980;28;20154;-79
2024/01/21 02:29:49;;;;;;;10.95;4.72;;;;;;;;;;5035073;28;20205;-79
2024/01/21 02:32:16;;;;;;;2.13;1.90;;;;;;;;;;5040472;28;20068;-79
2024/01/21 02:34:44;;;;;;;0.90;0.90;;;;;;;;;;5046566;28;20095;-79
2024/01/21 02:37:11;;;;;;;0.65;0.65;;;;;;;;;;5042009;28;20045;-79
2024/01/21 02:39:39;;;;;;;0.95;0.95;;;;;;;;;;5041342;28;20435;-79
2024/01/21 02:42:06;;;;;;;3.00;2.20;;;;;;;;;;5038188;28;20065;-79
2024/01/21 02:44:34;;;;;;;1.25;1.25;;;;;;;;;;5046560;28;20097;-79
2024/01/21 02:47:01;;;;;;;2.85;2.22;;;;;;;;;;5030958;28;20068;-79
2024/01/21 02:49:29;;;;;;;3.60;3.28;;;;;;;;;;5044191;28;20139;-79
2024/01/21 02:51:57;;;;;;;1.27;0.88;;;;;;;;;;5034898;28;20041;-79
2024/01/21 02:54:25;;;;;;;1.25;1.15;;;;;;;;;;5039662;28;20117;-79
2024/01/21 02:56:53;;;;;;;1.27;1.25;;;;;;;;;;5040653;28;20041;-78
2024/01/21 02:59:20;;;;;;;4.35;3.50;;;;;;;;;;5034381;28;20048;-78
2024/01/21 03:01:47;;;;;;;1.80;1.00;;;;;;;;;;5036381;28;20380;-77
2024/01/21 03:04:15;;;;;;;0.88;0.88;;;;;;;;;;5040709;28;20041;-77
2024/01/21 03:06:43;;;;;;;2.72;1.75;;;;;;;;;;5035349;28;20060;-78
2024/01/21 03:09:11;;;;;;;1.42;1.38;;;;;;;;;;5036622;28;20214;-77
2024/01/21 03:11:38;;;;;;;2.42;1.95;;;;;;;;;;5034118;28;20057;-78
2024/01/21 03:14:07;;;;;;;10.90;4.95;;;;;;;;;;5032769;28;22268;-77
2024/01/21 03:16:34;;;;;;;1.77;1.50;;;;;;;;;;5033890;28;20499;-77
2024/01/21 03:19:02;;;;;;;3.05;2.60;;;;;;;;;;5029829;28;20050;-77
2024/01/21 03:21:29;;;;;;;1.88;1.77;;;;;;;;;;5034033;28;20077;-77
2024/01/21 03:23:57;;;;;;;2.13;1.40;;;;;;;;;;5005914;28;20124;-77
2024/01/21 03:26:24;;;;;;;0.57;0.57;;;;;;;;;;5038788;28;20049;-78
2024/01/21 03:28:52;;;;;;;2.13;1.92;;;;;;;;;;5032496;28;20049;-78
2024/01/21 03:31:19;;;;;;;0.95;0.95;;;;;;;;;;5037143;28;20049;-78
2024/01/21 03:33:47;;;;;;;3.05;2.85;;;;;;;;;;5033157;28;20053;-77
2024/01/21 03:36:15;;;;;;;0.75;0.75;;;;;;;;;;5019934;28;20136;-78
2024/01/21 03:38:44;;;;;;;2.85;2.13;;;;;;;;;;5039816;28;20293;-77
2024/01/21 03:41:12;;;;;;;0.75;0.75;;;;;;;;;;5040772;28;20478;-77
2024/01/21 03:43:40;;;;;;;2.30;2.10;;;;;;;;;;5033528;28;20176;-77
2024/01/21 03:46:07;;;;;;;0.55;0.55;;;;;;;;;;5033858;28;20068;-77
2024/01/21 03:48:34;;;;;;;1.75;1.65;;;;;;;;;;5038742;28;20597;-77
2024/01/21 03:51:02;;;;;;;1.95;1.85;;;;;;;;;;5040294;28;20048;-77
2024/01/21 03:53:30;;;;;;;2.10;1.38;;;;;;;;;;5019474;28;20418;-77
2024/01/21 03:55:57;;;;;;;1.40;1.30;;;;;;;;;;5001667;28;20388;-77
2024/01/21 03:58:25;;;;;;;2.85;2.65;;;;;;;;;;5037039;28;20503;-77
2024/01/21 04:00:52;;;;;;;2.55;1.45;;;;;;;;;;5031562;28;20421;-78
2024/01/21 04:03:20;;;;;;;1.15;1.05;;;;;;;;;;5001667;28;20099;-77
2024/01/21 04:05:47;;;;;;;11.68;2.20;;;;;;;;;;5008498;28;20049;-77
2024/01/21 04:08:15;;;;;;;4.45;2.75;;;;;;;;;;5037985;28;20162;-77
2024/01/21 04:10:42;;;;;;;1.05;1.05;;;;;;;;;;5039503;28;20069;-78
2024/01/21 04:13:10;;;;;;;4.03;2.03;;;;;;;;;;5024384;28;20483;-77
2024/01/21 04:15:38;;;;;;;1.92;1.75;;;;;;;;;;5042100;28;20056;-77
2024/01/21 04:18:05;;;;;;;1.98;1.88;;;;;;;;;;5028228;28;20530;-77
2024/01/21 04:20:33;;;;;;;0.40;0.40;;;;;;;;;;5037824;28;20041;-77
2024/01/21 04:23:00;;;;;;;0.73;0.73;;;;;;;;;;5033754;28;20120;-77
2024/01/21 04:25:28;;;;;;;1.35;1.30;;;;;;;;;;5039533;28;20049;-77
2024/01/21 04:27:55;;;;;;;3.78;2.15;;;;;;;;;;5047486;28;20407;-77
2024/01/21 04:30:23;;;;;;;2.72;1.83;;;;;;;;;;5041156;28;20114;-77
2024/01/21 04:32:50;;;;;;;2.40;2.20;;;;;;;;;;5038666;28;20065;-77
2024/01/21 04:35:18;;;;;;;1.38;1.35;;;;;;;;;;5040639;28;20423;-77
2024/01/21 04:37:45;;;;;;;1.30;1.15;;;;;;;;;;5041393;28;20046;-78
2024/01/21 04:40:13;;;;;;;1.38;1.27;;;;;;;;;;5040350;28;20041;-77
2024/01/21 04:42:40;;;;;;;1.88;1.35;;;;;;;;;;5039987;28;20584;-77
2024/01/21 04:45:08;;;;;;;0.52;0.52;;;;;;;;;;5037782;28;20407;-77
2024/01/21 04:47:38;;;;;;;1.20;0.82;;;;;;;;;;5034872;28;20041;-77
2024/01/21 04:50:06;;;;;;;2.70;1.58;;;;;;;;;;5035627;28;20507;-77
2024/01/21 04:52:34;;;;;;;6.55;3.63;;;;;;;;;;5041311;28;20045;-77
2024/01/21 04:55:01;;;;;;;3.80;2.20;;;;;;;;;;5039239;28;20124;-77
2024/01/21 04:57:29;;;;;;;0.43;0.43;;;;;;;;;;5028527;28;20590;-77
2024/01/21 04:59:56;;;;;;;0.40;0.40;;;;;;;;;;5032406;28;20126;-78
2024/01/21 05:02:24;;;;;;;0.55;0.55;;;;;;;;;;5014299;28;20072;-77
2024/01/21 05:04:51;;;;;;;2.25;1.25;;;;;;;;;;5045569;28;20395;-77
2024/01/21 05:07:19;;;;;;;1.75;1.20;;;;;;;;;;5042375;28;20044;-77
2024/01/21 05:09:46;;;;;;;1.27;1.02;;;;;;;;;;5043193;28;20066;-77
2024/01/21 05:12:13;;;;;;;1.30;1.27;;;;;;;;;;5031827;28;20075;-77
2024/01/21 05:14:41;;;;;;;1.65;1.52;;;;;;;;;;5036904;28;20118;-77
2024/01/21 05:17:10;;;;;;;1.63;1.52;;;;;;;;;;5023004;28;20037;-77
2024/01/21 05:19:38;;;;;;;1.75;1.63;;;;;;;;;;5043590;28;20522;-77
2024/01/21 05:22:05;;;;;;;1.80;1.70;;;;;;;;;;5045932;28;20067;-77
2024/01/21 05:24:35;;;;;;;1.98;1.17;;;;;;;;;;5043181;28;20789;-77
2024/01/21 05:27:04;;;;;;;0.82;0.82;;;;;;;;;;5041647;28;20045;-77
2024/01/21 05:29:31;;;;;;;0.73;0.73;;;;;;;;;;5041582;28;20453;-77
2024/01/21 05:32:03;;;;;;;;;;;;;;;;;;5038798;28;20041;-77
2024/01/21 05:34:32;;;;;;;1.70;1.42;;;;;;;;;;5042031;28;19921;-77
2024/01/21 05:37:00;;;;;;;1.77;1.65;;;;;;;;;;5039744;28;20075;-77
2024/01/21 05:39:27;;;;;;;0.25;0.25;;;;;;;;;;5026306;28;20120;-78
2024/01/21 05:42:02;;;;;;;0.60;0.60;;;;;;;;;;5017602;28;20041;-78
2024/01/21 05:44:29;;;;;;;0.35;0.35;;;;;;;;;;5041099;28;20053;-78
2024/01/21 05:46:57;;;;;;;3.25;2.45;;;;;;;;;;5033080;28;20412;-77
2024/01/21 05:49:26;;;;;;;1.70;1.35;;;;;;;;;;5035467;28;20044;-78
2024/01/21 05:51:54;;;;;;;1.75;1.65;;;;;;;;;;5024225;28;20079;-78
2024/01/21 05:54:22;;;;;;;2.47;2.05;;;;;;;;;;5034777;28;20045;-77
2024/01/21 05:56:49;;;;;;;0.80;0.80;;;;;;;;;;5019605;28;20091;-78
2024/01/21 05:59:17;;;;;;;1.45;1.23;;;;;;;;;;5022844;28;20041;-78
2024/01/21 06:01:48;;;;;;;0.98;0.98;;;;;;;;;;5014916;28;20056;-78
2024/01/21 06:04:17;;;;;;;1.55;1.48;;;;;;;;;;5040624;28;20752;-78
2024/01/21 06:06:45;;;;;;;4.20;1.60;;;;;;;;;;5037749;28;20052;-78
2024/01/21 06:09:12;;;;;;;6.60;3.72;;;;;;;;;;5026233;28;20053;-78
2024/01/21 06:11:41;;;;;;;0.63;0.63;;;;;;;;;;5038799;28;20454;-78
2024/01/21 06:14:08;;;;;;;0.75;0.73;;;;;;;;;;5041997;28;20059;-77
2024/01/21 06:16:36;;;;;;;1.42;1.30;;;;;;;;;;5032045;28;20507;-78
2024/01/21 06:19:05;;;;;;;1.58;1.50;;;;;;;;;;5020066;28;20414;-78
2024/01/21 06:21:33;;;;;;;0.82;0.82;;;;;;;;;;5022862;28;20124;-78
2024/01/21 06:24:01;;;;;;;3.22;1.42;;;;;;;;;;5039882;28;20503;-77
2024/01/21 06:26:28;;;;;;;1.00;0.93;;;;;;;;;;5039987;28;20045;-77
2024/01/21 06:28:56;;;;;;;7.22;2.28;;;;;;;;;;5036599;28;20071;-77
2024/01/21 06:31:23;;;;;;;0.25;0.25;;;;;;;;;;5038659;28;20060;-77
2024/01/21 06:33:51;;;;;;;1.83;1.73;;;;;;;;;;5037140;28;20061;-78
2024/01/21 06:36:19;;;;;;;1.98;1.85;;;;;;;;;;5022797;28;20049;-77
2024/01/21 06:38:46;;;;;;;1.08;1.08;;;;;;;;;;5038517;28;20033;-78
2024/01/21 06:41:14;;;;;;;2.75;2.50;;;;;;;;;;5034039;28;20044;-77
2024/01/21 06:43:41;;;;;;;1.75;1.63;;;;;;;;;;5037249;28;20064;-78
2024/01/21 06:46:09;;;;;;;1.00;1.00;;;;;;;;;;5037742;28;20065;-78
2024/01/21 06:48:36;;;;;;;0.73;0.73;;;;;;;;;;5028856;28;20068;-77
2024/01/21 06:51:09;;;;;;;1.58;1.35;;;;;;;;;;5039275;28;20090;-77
2024/01/21 06:53:38;;;;;;;0.38;0.38;;;;;;;;;;5035057;28;20059;-77
2024/01/21 06:56:08;;;;;;;14.05;3.70;;;;;;;;;;5037074;28;20065;-78
2024/01/21 06:58:36;;;;;;;0.57;0.57;;;;;;;;;;5036777;28;20052;-77
2024/01/21 07:01:05;;;;;;;1.55;0.95;;;;;;;;;;5035963;28;20045;-78
2024/01/21 07:03:32;;;;;;;0.10;0.10;;;;;;;;;;5041085;28;20122;-77
2024/01/21 07:06:00;;;;;;;0.88;0.88;;;;;;;;;;5039933;28;20049;-78
2024/01/21 07:08:28;;;;;;;1.83;1.73;;;;;;;;;;5020779;28;20045;-78
2024/01/21 07:10:55;;;;;;;3.33;2.38;;;;;;;;;;5036761;28;20053;-77
2024/01/21 07:13:23;;;;;;;4.90;2.88;;;;;;;;;;5030851;28;20049;-77
2024/01/21 07:15:51;;;;;;;3.45;1.33;;;;;;;;;;5037387;28;20060;-77
2024/01/21 07:18:18;;;;;;;0.90;0.90;;;;;;;;;;5022388;28;20472;-77
2024/01/21 07:20:46;;;;;;;3.08;2.75;;;;;;;;;;5039750;28;20047;-77
2024/01/21 07:23:13;;;;;;;2.55;2.05;;;;;;;;;;5038251;28;20463;-77
2024/01/21 07:25:41;;;;;;;1.38;1.27;;;;;;;;;;5038858;28;20454;-77
2024/01/21 07:28:08;;;;;;;2.22;1.45;;;;;;;;;;5031030;28;20041;-77
2024/01/21 07:30:36;;;;;;;2.95;2.50;;;;;;;;;;5031714;28;20564;-77
2024/01/21 07:33:03;;;;;;;3.08;1.83;;;;;;;;;;5037511;28;20128;-77
2024/01/21 07:35:31;;;;;;;2.28;2.08;;;;;;;;;;5035264;28;20046;-77
2024/01/21 07:37:58;;;;;;;2.10;1.92;;;;;;;;;;5034654;28;20061;-77
2024/01/21 07:40:27;;;;;;;1.80;1.70;;;;;;;;;;5037492;28;20294;-77
2024/01/21 07:42:55;;;;;;;1.95;1.67;;;;;;;;;;5035753;28;20388;-77
2024/01/21 07:45:23;;;;;;;1.75;1.33;;;;;;;;;;5013595;28;20048;-78
2024/01/21 07:47:54;;;;;;;1.35;1.00;;;;;;;;;;5033731;28;20067;-78
2024/01/21 07:50:21;;;;;;;1.23;1.15;;;;;;;;;;5030569;28;20441;-78
2024/01/21 07:52:49;;;;;;;2.50;2.30;;;;;;;;;;5026292;28;20049;-78
2024/01/21 07:55:17;;;;;;;2.90;2.63;;;;;;;;;;5034689;28;20061;-78
2024/01/21 07:57:44;;;;;;;1.77;1.63;;;;;;;;;;5033961;28;20499;-78
2024/01/21 08:00:12;;;;;;;1.42;1.08;;;;;;;;;;5034202;28;20448;-78
2024/01/21 08:02:39;;;;;;;2.83;1.75;;;;;;;;;;5024090;28;21029;-78
2024/01/21 08:05:08;;;;;;;1.95;1.67;;;;;;;;;;5035006;28;20083;-78
2024/01/21 08:07:36;;;;;;;5.38;2.05;;;;;;;;;;5033957;28;20061;-78
2024/01/21 08:10:04;;;;;;;1.55;1.45;;;;;;;;;;5043831;28;20053;-78
2024/01/21 08:12:32;;;;;;;2.88;2.25;;;;;;;;;;5033831;28;20723;-78
2024/01/21 08:14:59;;;;;;;1.92;1.67;;;;;;;;;;5023188;28;20044;-78
2024/01/21 08:17:27;;;;;;;1.65;1.02;;;;;;;;;;5032525;28;20065;-78
2024/01/21 08:19:55;;;;;;;3.33;1.80;;;;;;;;;;5032176;28;20052;-78
2024/01/21 08:22:22;;;;;;;5.28;4.20;;;;;;;;;;5038399;28;20037;-78
2024/01/21 08:24:52;;;;;;;2.08;1.38;;;;;;;;;;4999609;28;20071;-77
2024/01/21 08:27:21;;;;;;;2.20;2.05;;;;;;;;;;5018632;28;20044;-78
2024/01/21 08:29:49;;;;;;;4.60;2.97;;;;;;;;;;5034398;28;20044;-78
2024/01/21 08:32:16;;;;;;;1.83;1.73;;;;;;;;;;5038158;28;20041;-78
2024/01/21 08:34:44;;;;;;;2.10;1.92;;;;;;;;;;5040183;28;20053;-78
2024/01/21 08:37:12;;;;;;;1.77;1.58;;;;;;;;;;5021396;28;20049;-78
2024/01/21 08:39:39;;;;;;;0.65;0.65;;;;;;;;;;5028663;28;20459;-78
2024/01/21 08:42:12;;;;;;;1.15;1.02;;;;;;;;;;5037691;28;20196;-78
2024/01/21 08:44:40;;;;;;;2.92;2.65;;;;;;;;;;5025366;28;20041;-78
2024/01/21 08:47:07;;;;;;;1.20;1.17;;;;;;;;;;5035053;28;20041;-78
2024/01/21 08:49:35;;;;;;;1.75;1.15;;;;;;;;;;5022602;28;20072;-78
2024/01/21 08:52:02;;;;;;;3.67;3.35;;;;;;;;;;5018614;28;20098;-78
2024/01/21 08:54:32;;;;;;;1.25;1.25;;;;;;;;;;5033019;28;20050;-78
2024/01/21 08:57:00;;;;;;;9.93;4.70;;;;;;;;;;5039576;28;20053;-78
2024/01/21 08:59:29;;;;;;;2.60;1.75;;;;;;;;;;5038795;28;20045;-79
2024/01/21 09:01:57;;;;;;;5.75;5.18;;;;;;;;;;5041852;28;20593;-79
2024/01/21 09:04:24;;;;;;;6.68;5.20;;;;;;;;;;5039568;28;20045;-78
2024/01/21 09:06:52;;;;;;;5.68;3.60;;;;;;;;;;5038351;28;20047;-78
2024/01/21 09:09:20;;;;;;;12.43;7.05;;;;;;;;;;5044209;28;20063;-79
2024/01/21 09:11:47;;;;;;;9.55;4.30;;;;;;;;;;5041481;28;20052;-78
2024/01/21 09:14:15;;;;;;;4.53;3.90;;;;;;;;;;5040253;28;20049;-78
2024/01/21 09:16:43;;;;;;;8.88;7.03;;;;;;;;;;5043842;28;20045;-78
2024/01/21 09:19:11;;;;;;;3.72;3.42;;;;;;;;;;5042511;28;20546;-79
2024/01/21 09:21:39;;;;;;;2.55;2.38;;;;;;;;;;5046608;28;20572;-79
2024/01/21 09:24:07;;;;;;;4.93;4.05;;;;;;;;;;5048220;28;20137;-79
2024/01/21 09:26:35;;;;;;;2.22;2.13;;;;;;;;;;5041947;28;20114;-79
2024/01/21 09:29:03;;;;;;;2.08;1.95;;;;;;;;;;5045539;28;20057;-80
2024/01/21 09:31:30;;;;;;;3.28;2.95;;;;;;;;;;5030716;28;20053;-80
2024/01/21 09:33:58;;;;;;;0.80;0.80;;;;;;;;;;5044158;28;20044;-80
2024/01/21 09:36:26;;;;;;;10.30;6.35;;;;;;;;;;5044695;28;20056;-82
2024/01/21 09:38:54;;;;;;;4.65;3.60;;;;;;;;;;5026900;28;20057;-81
2024/01/21 09:41:40;;;;;;;4.70;2.75;;;;;;;;;;5023503;28;20045;-81
2024/01/21 09:44:07;;;;;;;16.20;7.50;;;;;;;;;;5021077;28;20060;-80
2024/01/21 09:46:35;;;;;;;3.80;3.00;;;;;;;;;;5039681;28;20064;-80
2024/01/21 09:49:04;;;;;;;6.88;4.13;;;;;;;;;;5026644;28;20113;-79
2024/01/21 09:51:36;;;;;;;9.80;7.72;;;;;;;;;;5047855;28;20087;-80
2024/01/21 09:54:06;;;;;;;3.25;2.90;;;;;;;;;;5043657;28;20041;-80
2024/01/21 09:56:34;;;;;;;9.68;7.65;;;;;;;;;;5041707;28;20425;-79
2024/01/21 09:59:02;;;;;;;2.83;2.63;;;;;;;;;;5044987;28;20110;-78
2024/01/21 10:01:32;;;;;;;2.40;2.28;;;;;;;;;;5037946;28;20059;-80
2024/01/21 10:03:59;;;;;;;5.25;4.15;;;;;;;;;;5038439;28;20053;-80
2024/01/21 10:06:27;;;;;;;5.07;3.85;;;;;;;;;;5044745;28;20045;-80
2024/01/21 10:09:10;;;;;;;10.48;3.08;;;;;;;;;;5032811;28;20068;-79
2024/01/21 10:11:38;;;;;;;8.38;6.10;;;;;;;;;;5043435;28;20044;-79
2024/01/21 10:14:05;;;;;;;6.20;4.93;;;;;;;;;;5042032;28;20037;-80
2024/01/21 10:16:32;;;;;;;6.07;5.47;;;;;;;;;;5038734;28;20049;-80
2024/01/21 10:19:00;;;;;;;6.78;5.13;;;;;;;;;;5045265;28;20048;-80
2024/01/21 10:21:28;;;;;;;9.35;6.88;;;;;;;;;;5042320;28;20785;-79
2024/01/21 10:23:55;;;;;;;6.28;1.80;;;;;;;;;;5045227;28;20041;-79
2024/01/21 10:26:23;;;;;;;1.83;1.60;;;;;;;;;;5083897;23;20051;-79
2024/01/21 10:28:51;;;;;;;0.55;0.55;;;;;;;;;;5050409;28;20086;-78
2024/01/21 10:31:19;;;;;;;1.20;0.93;;;;;;;;;;5017740;28;20045;-77
2024/01/21 10:33:47;;;;;;;0.55;0.55;;;;;;;;;;5046949;28;20048;-84
2024/01/21 10:36:15;;;;;;;7.90;6.32;;;;;;;;;;5045711;28;20045;-82
2024/01/21 10:38:49;;;;;;;6.90;5.38;;;;;;;;;;5038635;28;20186;-85
2024/01/21 10:41:25;;;;;;;7.13;3.90;;;;;;;;;;5044167;28;20088;-77
2024/01/21 10:43:57;;;;;;;5.97;4.32;;;;;;;;;;5043589;28;20498;-84
2024/01/21 10:46:25;;;;;;;11.48;6.55;;;;;;;;;;5044890;28;20052;-79
2024/01/21 10:48:55;;;;;;;11.68;6.68;;;;;;;;;;5043177;28;20156;-79
2024/01/21 10:51:24;;;;;;;0.77;0.77;;;;;;;;;;5041660;28;20049;-77
2024/01/21 10:53:51;;;;;;;5.03;3.92;;;;;;;;;;5046411;28;20056;-77
2024/01/21 10:56:19;;;;;;;4.28;3.90;;;;;;;;;;5023953;28;20045;-79
2024/01/21 10:58:48;;;;;;;10.98;7.72;;;;;;;;;;5032386;28;20140;-79
2024/01/21 11:01:17;;;;;;;8.77;6.65;;;;;;;;;;5023933;28;20044;-78
2024/01/21 11:03:48;;;;;;;4.35;3.75;;;;;;;;;;5027709;28;20033;-78
2024/01/21 11:06:16;;;;;;;2.60;2.15;;;;;;;;;;5045788;28;20053;-78
2024/01/21 11:08:44;;;;;;;7.03;2.15;;;;;;;;;;5038491;28;20521;-78
2024/01/21 11:11:11;;;;;;;1.83;1.70;;;;;;;;;;5041845;28;20463;-78
2024/01/21 11:13:43;;;;;;;6.53;3.10;;;;;;;;;;5044544;28;20721;-78
2024/01/21 11:16:12;;;;;;;4.80;3.38;;;;;;;;;;5041826;28;20057;-78
2024/01/21 11:18:42;;;;;;;1.42;1.33;;;;;;;;;;5045119;28;20049;-78
2024/01/21 11:21:12;;;;;;;2.92;2.13;;;;;;;;;;5039359;28;20053;-78
2024/01/21 11:23:40;;;;;;;1.83;1.73;;;;;;;;;;5011598;28;20045;-78
2024/01/21 11:26:07;;;;;;;4.60;3.83;;;;;;;;;;5028132;28;20596;-78
2024/01/21 11:28:35;;;;;;;0.80;0.80;;;;;;;;;;5047149;28;20056;-82
2024/01/21 11:31:07;;;;;;;2.17;1.40;;;;;;;;;;5026780;28;20076;-82
2024/01/21 11:33:36;;;;;;;0.57;0.57;;;;;;;;;;5041394;28;20130;-79
2024/01/21 11:36:05;;;;;;;0.95;0.95;;;;;;;;;;5026203;28;20134;-79
2024/01/21 11:38:33;;;;;;;1.65;1.50;;;;;;;;;;5042480;28;20083;-78
2024/01/21 11:41:03;;;;;;;2.25;2.08;;;;;;;;;;5026629;28;20041;-78
2024/01/21 11:43:32;;;;;;;0.40;0.40;;;;;;;;;;5025994;28;20045;-79
2024/01/21 11:46:00;;;;;;;2.30;2.15;;;;;;;;;;5045375;28;20392;-85
2024/01/21 11:48:29;;;;;;;0.60;0.50;;;;;;;;;;5041383;28;20041;-81
2024/01/21 11:50:57;;;;;;;2.15;1.92;;;;;;;;;;5022985;28;20049;-84
2024/01/21 11:53:26;;;;;;;1.65;1.55;;;;;;;;;;5042590;28;20550;-81
2024/01/21 11:55:53;;;;;;;1.95;1.17;;;;;;;;;;5040430;28;20052;-79
2024/01/21 12:01:13;;;;;;;;;;;;;;;;;;5032457;28;20041;-81
2024/01/21 12:03:40;;;;;;;3.88;2.50;;;;;;;;;;5042959;28;20226;-79
2024/01/21 12:06:08;;;;;;;0.38;0.38;;;;;;;;;;5029737;23;20462;-76
2024/01/21 12:08:37;;;;;;;0.57;0.57;;;;;;;;;;5022862;28;20093;-77
2024/01/21 12:11:04;;;;;;;0.73;0.73;;;;;;;;;;5039410;28;20052;-76
2024/01/21 12:13:31;;;;;;;1.23;1.15;;;;;;;;;;5036300;28;20063;-76
2024/01/21 12:15:59;;;;;;;0.75;0.75;;;;;;;;;;5044110;28;20045;-76
2024/01/21 12:18:26;;;;;;;2.05;1.85;;;;;;;;;;5035823;28;20424;-76
2024/01/21 12:20:55;;;;;;;1.63;1.45;;;;;;;;;;5027372;28;21187;-76
2024/01/21 12:23:26;;;;;;;0.75;0.75;;;;;;;;;;5012285;28;20041;-77
2024/01/21 12:25:55;;;;;;;0.85;0.85;;;;;;;;;;5036571;28;20056;-77
2024/01/21 12:28:23;;;;;;;0.90;0.60;;;;;;;;;;5038650;28;21575;-77
2024/01/21 12:30:51;;;;;;;1.05;1.05;;;;;;;;;;5037726;28;20061;-78
2024/01/21 12:33:18;;;;;;;0.10;0.10;;;;;;;;;;5042559;28;20060;-77
2024/01/21 12:35:47;;;;;;;2.03;0.95;;;;;;;;;;5045578;28;20118;-78
2024/01/21 12:38:16;;;;;;;1.73;1.58;;;;;;;;;;5034250;28;20124;-77
2024/01/21 12:40:44;;;;;;;0.45;0.32;;;;;;;;;;5045162;28;20033;-77
2024/01/21 12:43:16;;;;;;;0.57;0.57;;;;;;;;;;5026064;28;20041;-78
2024/01/21 12:45:43;;;;;;;4.82;1.75;;;;;;;;;;5044114;28;20135;-78
2024/01/21 12:48:11;;;;;;;0.70;0.70;;;;;;;;;;5039049;28;20540;-77
2024/01/21 12:50:41;;;;;;;0.60;0.60;;;;;;;;;;5031283;28;20709;-77
2024/01/21 12:53:09;;;;;;;0.90;0.90;;;;;;;;;;5024274;28;20062;-78
2024/01/21 12:55:36;;;;;;;0.65;0.65;;;;;;;;;;5036508;28;20136;-77
2024/01/21 12:58:04;;;;;;;0.55;0.52;;;;;;;;;;5042877;28;20052;-77
2024/01/21 13:00:32;;;;;;;0.43;0.43;;;;;;;;;;5027377;28;20191;-74
2024/01/21 13:03:02;;;;;;;3.17;1.88;;;;;;;;;;5046515;28;20049;-75
2024/01/21 13:05:29;;;;;;;4.75;2.08;;;;;;;;;;5048901;28;20045;-76
2024/01/21 13:07:58;;;;;;;1.63;0.55;;;;;;;;;;5046189;28;20041;-75
2024/01/21 13:10:26;;;;;;;0.70;0.70;;;;;;;;;;5042816;28;20667;-76
2024/01/21 13:12:55;;;;;;;2.45;2.35;;;;;;;;;;5047963;28;20049;-75
2024/01/21 13:15:23;;;;;;;2.05;1.83;;;;;;;;;;5044475;28;20564;-76
2024/01/21 13:17:52;;;;;;;0.47;0.47;;;;;;;;;;5046011;28;20048;-75
2024/01/21 13:20:20;;;;;;;2.55;1.70;;;;;;;;;;5041226;28;20056;-76
2024/01/21 13:22:47;;;;;;;1.42;1.33;;;;;;;;;;5029837;28;20465;-76
2024/01/21 13:25:17;;;;;;;1.60;1.50;;;;;;;;;;5049965;28;20041;-77
2024/01/21 13:27:54;;;;;;;5.88;0.55;;;;;;;;;;5054119;28;20049;-77
2024/01/21 13:33:09;;;;;;;2.10;1.85;;;;;;;;;;5053174;28;20060;-76
2024/01/21 13:35:36;;;;;;;1.20;1.17;;;;;;;;;;5053182;28;20048;-76
2024/01/21 13:38:05;;;;;;;0.30;0.30;;;;;;;;;;5043170;28;20036;-76
2024/01/21 13:40:32;;;;;;;0.47;0.47;;;;;;;;;;5046131;28;20045;-76
2024/01/21 13:43:00;;;;;;;0.80;0.52;;;;;;;;;;5044126;28;20056;-75
2024/01/21 13:45:27;;;;;;;0.55;0.55;;;;;;;;;;5037568;28;20041;-75
2024/01/21 13:47:55;;;;;;;0.45;0.45;;;;;;;;;;5043865;28;20264;-75
2024/01/21 13:50:22;;;;;;;1.15;1.15;;;;;;;;;;5038812;28;20257;-75
2024/01/21 13:52:50;;;;;;;0.90;0.90;;;;;;;;;;5016269;28;20077;-74
2024/01/21 13:55:17;;;;;;;1.48;1.38;;;;;;;;;;5038019;28;20515;-74
2024/01/21 13:57:45;;;;;;;1.20;1.15;;;;;;;;;;5039247;28;20645;-74
2024/01/21 14:00:13;;;;;;;2.67;2.25;;;;;;;;;;5020636;28;20045;-75
2024/01/21 14:02:40;;;;;;;2.42;1.25;;;;;;;;;;5019175;28;20135;-75
2024/01/21 14:05:08;;;;;;;1.98;1.25;;;;;;;;;;5021028;28;20148;-75
2024/01/21 14:07:35;;;;;;;0.10;0.10;;;;;;;;;;5040514;28;20246;-74
2024/01/21 14:10:04;;;;;;;0.45;0.45;;;;;;;;;;5043751;28;20202;-74
2024/01/21 14:12:33;;;;;;;0.63;0.63;;;;;;;;;;5035604;28;20053;-75
2024/01/21 14:15:00;;;;;;;0.70;0.70;;;;;;;;;;5039599;28;20127;-74
2024/01/21 14:17:28;;;;;;;0.20;0.20;;;;;;;;;;5038299;28;20041;-74
2024/01/21 14:19:56;;;;;;;0.30;0.30;;;;;;;;;;5044463;28;20123;-74
2024/01/21 14:22:23;;;;;;;23.08;3.75;;;;;;;;;;5008359;28;20044;-74
2024/01/21 14:24:51;;;;;;;2.65;2.05;;;;;;;;;;5039597;28;20056;-74
2024/01/21 14:27:19;;;;;;;0.65;0.65;;;;;;;;;;5043632;28;20045;-74
2024/01/21 14:29:49;;;;;;;1.48;0.70;;;;;;;;;;5026579;28;20139;-74
2024/01/21 14:32:16;;;;;;;0.75;0.75;;;;;;;;;;5042423;28;20055;-74
2024/01/21 14:34:43;;;;;;;0.10;0.10;;;;;;;;;;5037608;28;20052;-74
2024/01/21 14:37:11;;;;;;;0.20;0.20;;;;;;;;;;5038291;28;20044;-74
2024/01/21 14:39:39;;;;;;;0.75;0.75;;;;;;;;;;5040647;28;20053;-74
2024/01/21 14:42:06;;;;;;;0.93;0.88;;;;;;;;;;5042733;28;20316;-74
2024/01/21 14:44:33;;;;;;;1.55;1.45;;;;;;;;;;5043801;28;20041;-76
2024/01/21 14:47:01;;;;;;;0.70;0.70;;;;;;;;;;5037219;28;20050;-74
2024/01/21 14:49:30;;;;;;;0.85;0.85;;;;;;;;;;5043192;28;20103;-73
2024/01/21 14:51:57;;;;;;;3.15;1.20;;;;;;;;;;5045937;28;20490;-74
2024/01/21 14:54:25;;;;;;;0.80;0.77;;;;;;;;;;5041948;28;20056;-73